• Join FlightAware (Why Join?)
  • Login
  • US Flag 
09:19PM EDT


 

Airport Tracker/Info


-or-


 

Live Flight TrackerFlight Track Log ✈ AWE3434 ✈ 16-Apr-2013 ✈ KPHL - KCMH

Flight Track Log - Related Links

Times and Time Zones

All times are in EDT time to prevent confusion due to time zone crossing. See the AWE3434 flight status page for this flight to view local times or setup timezone preferences in your user account.

Time Position Orientation Groundspeed Altitude Reporting Facility
EDT Latitude Longitude Course Direction KTS MPH feet Rate Location/Type
03:18PM 39.8667 -75.2667 242° Southwest 152 175 800  Level Philadelphia TRACON
03:18PM 39.8600 -75.2833 242° Southwest 149 171 1,300 1,620 Climbing FAA TRACON SMA TRACON (SMA)
03:19PM 39.8569 -75.3044 259° West 153 176 1,800 1,500 Climbing FAA TRACON SMA TRACON (SMA)
03:19PM 39.8542 -75.3275 261° West 207 238 2,300 1,620 Climbing FAA TRACON SMA TRACON (SMA)
03:19PM 39.8508 -75.3517 260° West 228 262 2,900 2,220 Climbing FAA TRACON SMA TRACON (SMA)
03:20PM 39.8469 -75.3825 261° West 248 285 3,800 3,420 Climbing FAA TRACON SMA TRACON (SMA)
03:20PM 39.8428 -75.4128 260° West 249 287 5,200 4,200 Climbing FAA TRACON SMA TRACON (SMA)
03:20PM 39.8472 -75.4453 280° West 240 276 6,600 3,300 Climbing FAA TRACON SMA TRACON (SMA)
03:21PM 39.8556 -75.4714 293° West 258 297 7,400 2,820 Climbing FAA TRACON SMA TRACON (SMA)
03:21PM 39.8642 -75.5011 291° West 270 311 8,500 2,400 Climbing FAA TRACON SMA TRACON (SMA)
03:21PM 39.8731 -75.5286 293° West 267 307 9,000 1,320 Climbing FAA TRACON SMA TRACON (SMA)
03:22PM 39.8839 -75.5619 293° West 265 305 9,400 1,800 Climbing FAA TRACON SMA TRACON (SMA)
03:22PM 39.8928 -75.5906 292° West 268 308 10,200 2,220 Climbing FAA TRACON SMA TRACON (SMA)
03:22PM 39.9036 -75.6133 302° West 278 320 10,900 2,400 Climbing FAA TRACON SMA TRACON (SMA)
03:23PM 39.9222 -75.6478 305° West 296 341 11,800 2,820 Climbing FAA TRACON SMA TRACON (SMA)
03:23PM 39.9367 -75.6792 301° West 300 345 12,800 3,000 Climbing FAA TRACON SMA TRACON (SMA)
03:23PM 39.9500 -75.7072 302° West 297 342 13,800 2,820 Climbing FAA TRACON SMA TRACON (SMA)
03:24PM 39.9656 -75.7406 301° West 297 342 14,700 2,700 Climbing FAA TRACON SMA TRACON (SMA)
03:24PM 39.9819 -75.7694 307° West 300 345 15,600 2,100 Climbing FAA TRACON SMA TRACON (SMA)
03:24PM 39.9919 -75.7917 300° West 303 349 16,100 2,220 Climbing FAA TRACON SMA TRACON (SMA)
03:25PM 40.0136 -75.8333 304° West 312 359 17,100 2,400 Climbing FAA TRACON SMA TRACON (SMA)
03:25PM 40.0303 -75.8672 303° West 325 374 17,700 1,500 Climbing FAA TRACON SMA TRACON (SMA)
03:25PM 40.0378 -75.8822 303° West 326 375 18,100 600 Climbing FAA TRACON SMA TRACON (SMA)
03:26PM 40.0378 -75.8822 217° Southwest 326 375 18,100 2,160 Level FAA TRACON SMA TRACON (SMA)
03:28PM 40.0603 -76.2278 275° West 339 390 24,300 2,160 Climbing New York Center
03:29PM 40.0625 -76.3556 271° West 352 405 25,800 1,500 Climbing New York Center
03:30PM 40.0625 -76.4883 270° West 358 412 27,400 1,440 Climbing New York Center
03:31PM 40.0636 -76.6350 271° West 370 426 28,700 1,260 Climbing New York Center
03:32PM 40.0650 -76.7733 271° West 375 432 30,000 1,200 Climbing New York Center
03:33PM 40.0639 -76.9144 269° West 388 447 31,200 960 Climbing New York Center
03:34PM 40.0650 -77.0556 271° West 388 447 32,000 360 Climbing New York Center
03:35PM 40.0653 -77.2022 270° West 393 452 32,000  Level New York Center
03:36PM 40.0669 -77.3272 271° West 393 452 32,000  Level New York Center
03:39PM 40.0683 -77.7072 270° West 401 461 32,000  Level Cleveland Center
03:40PM 40.0656 -77.8511 269° West 401 461 32,000  Level Cleveland Center
03:41PM 40.0650 -78.0006 270° West 401 461 32,000  Level Cleveland Center
03:42PM 40.0639 -78.1444 269° West 401 461 32,000  Level Cleveland Center
03:43PM 40.0650 -78.2908 271° West 401 461 32,000  Level Cleveland Center
03:44PM 40.0617 -78.4375 268° West 401 461 32,000  Level Cleveland Center
03:45PM 40.0600 -78.5811 269° West 401 461 32,000  Level Cleveland Center
03:46PM 40.0603 -78.7278 270° West 401 461 32,000  Level Cleveland Center
03:47PM 40.0564 -78.8717 268° West 401 461 32,000  Level Cleveland Center
03:48PM 40.0544 -79.0181 269° West 401 461 32,000  Level Cleveland Center
03:49PM 40.0542 -79.1644 270° West 401 461 32,000  Level Cleveland Center
03:50PM 40.0539 -79.3083 270° West 401 461 32,000  Level Cleveland Center
03:51PM 40.0533 -79.4522 270° West 401 461 32,000  Level Cleveland Center
03:52PM 40.0503 -79.5958 268° West 401 461 32,000  Level Cleveland Center
03:53PM 40.0453 -79.7425 267° West 401 461 32,000  Level Cleveland Center
03:54PM 40.0422 -79.8861 268° West 401 461 32,000  Level Cleveland Center
03:55PM 40.0408 -80.0300 269° West 401 461 32,000 -600 Level Cleveland Center
03:56PM 40.0308 -80.1519 264° West 401 461 30,900 -1,260 Descending Cleveland Center
03:57PM 40.0125 -80.2875 260° West 391 450 29,500 -1,380 Descending Cleveland Center
03:58PM 39.9961 -80.4178 261° West 380 437 28,200 -1,380 Descending Cleveland Center
03:59PM 39.9775 -80.5558 260° West 380 437 26,800 -1,380 Descending Cleveland Center
04:00PM 39.9586 -80.6914 260° West 380 437 25,500 -1,380 Descending Cleveland Center
04:02PM 39.9153 -80.9992 260° West 364 419 22,300 -1,080 Descending Indianapolis Center
04:03PM 39.8983 -81.1261 260° West 358 412 22,000 -180 Descending Indianapolis Center
04:04PM 39.8808 -81.2547 260° West 361 415 22,000 -300 Level Indianapolis Center
04:05PM 39.8633 -81.3819 260° West 358 412 21,400 -1,440 Descending Indianapolis Center
04:06PM 39.8425 -81.5311 260° West 353 406 19,100 -2,040 Descending Indianapolis Center
04:07PM 39.8247 -81.6533 259° West 343 395 17,300 -1,740 Descending Indianapolis Center
04:08PM 39.8094 -81.7714 260° West 331 381 15,600 -1,740 Descending Indianapolis Center
04:09PM 39.8253 -81.8878 280° West 325 374 13,800 -1,740 Descending Indianapolis Center
04:10PM 39.8306 -81.9247 281° West 320 368 13,300 -1,800 Descending Indianapolis Center
04:10PM 39.8442 -82.0006 283° West 317 365 12,000 -1,800 Descending Indianapolis Center
04:11PM 39.8669 -82.1208 284° West 311 358 10,200 -1,380 Descending Indianapolis Center
04:12PM 39.9122 -82.2017 306° West 267 307 9,300 -1,440 Descending Indianapolis Center
04:13PM 39.9597 -82.2772 309° West 265 305 7,300 -1,740 Descending Indianapolis Center
04:14PM 39.9733 -82.3631 282° West 258 297 6,000 -900 Descending Indianapolis Center
04:15PM 39.9764 -82.4475 273° West 257 296 5,700 -540 Descending Indianapolis Center
04:15PM 39.9786 -82.4747 276° West 262 302 5,400 -1,140 Descending Indianapolis Center
04:16PM 39.9828 -82.5408 275° West 258 297 4,600 -1,200 Descending Indianapolis Center
04:16PM 39.9842 -82.5678 274° West 256 295 4,200 -600 Descending Indianapolis Center
04:17PM 39.9875 -82.6336 274° West 255 293 4,000 -300 Descending Indianapolis Center
04:17PM 39.9886 -82.6600 273° West 255 293 3,900 -1,020 Descending Indianapolis Center
04:18PM 39.9917 -82.7267 273° West 243 280 3,000 -1,200 Descending Indianapolis Center
04:19PM 39.9936 -82.7456 278° West 245 282 2,700 -900 Descending Indianapolis Center
04:19PM 39.9958 -82.7897 274° West 207 238 2,200 -900 Descending Indianapolis Center
04:20PM 39.9972 -82.8136 274° West 210 242 1,800 -900 Descending Indianapolis Center
04:20PM 39.9983 -82.8472 272° West 127 146 1,300 -600 Descending Indianapolis Center
04:21PM 40.0014 -82.8706 280° West 169 194 1,200 -240 Descending Indianapolis Center
04:23PM 39.9833 -82.8833 273° West  Level FlightAware Approximate